createdAt,value
2018-09-29T05:49:44.032Z,101692.94
2018-09-29T05:52:12.532Z,101692.36
2018-09-29T05:54:40.962Z,101688.64
2018-09-29T05:57:09.721Z,101695.08
2018-09-29T05:59:38.117Z,101695.37
2018-09-29T06:02:06.451Z,101691.26
2018-09-29T06:04:34.855Z,101688.47
2018-09-29T06:07:03.436Z,101688.33
2018-09-29T06:09:31.808Z,101682.40
2018-09-29T06:12:00.500Z,101673.39
2018-09-29T06:14:28.968Z,101675.91
2018-09-29T06:16:57.323Z,101683.27
2018-09-29T06:19:25.840Z,101686.06
2018-09-29T06:21:54.881Z,101682.98
2018-09-29T06:24:23.387Z,101684.31
2018-09-29T06:26:52.314Z,101672.80
2018-09-29T06:29:20.683Z,101674.19
2018-09-29T06:31:49.045Z,101671.81
2018-09-29T06:34:17.909Z,101671.59
2018-09-29T06:36:47.241Z,101674.25
2018-09-29T06:39:15.662Z,101679.86
2018-09-29T06:41:44.627Z,101681.08
2018-09-29T06:44:13.117Z,101676.55
2018-09-29T06:46:41.464Z,101668.47
2018-09-29T06:49:10.172Z,101675.41
2018-09-29T06:51:38.528Z,101668.15
2018-09-29T06:54:07.015Z,101664.04
2018-09-29T06:56:35.428Z,101668.32
2018-09-29T06:59:03.777Z,101669.97
2018-09-29T07:01:32.155Z,101661.00
2018-09-29T07:04:01.567Z,101661.09
2018-09-29T07:06:29.913Z,101661.19
2018-09-29T07:08:58.315Z,101656.02
2018-09-29T07:11:26.711Z,101649.70
2018-09-29T07:13:55.559Z,101649.36
2018-09-29T07:16:23.971Z,101653.91
2018-09-29T07:18:52.373Z,101652.19
2018-09-29T07:21:20.860Z,101645.34
2018-09-29T07:23:49.984Z,101645.22
2018-09-29T07:26:18.824Z,101643.27
2018-09-29T07:28:47.159Z,101650.80
2018-09-29T07:31:15.683Z,101647.11
2018-09-29T07:33:44.363Z,101642.81
2018-09-29T07:36:12.719Z,101636.61
2018-09-29T07:38:41.092Z,101636.48
2018-09-29T07:41:09.804Z,101636.34
2018-09-29T07:43:38.164Z,101627.34
2018-09-29T07:46:06.540Z,101622.16
2018-09-29T07:48:34.947Z,101618.59
2018-09-29T07:51:03.351Z,101616.05
2018-09-29T07:53:31.779Z,101608.30
2018-09-29T07:56:00.598Z,101602.66
2018-09-29T07:58:28.903Z,101605.88
2018-09-29T08:00:57.287Z,101582.80
2018-09-29T08:03:26.148Z,101594.16
2018-09-29T08:05:54.611Z,101579.32
2018-09-29T08:08:22.951Z,101569.48
2018-09-29T08:10:51.537Z,101572.81
2018-09-29T08:13:19.935Z,101570.67
2018-09-29T08:15:48.400Z,101578.02
2018-09-29T08:18:17.155Z,101574.41
2018-09-29T08:20:45.515Z,101567.48
2018-09-29T08:23:14.015Z,101556.80
2018-09-29T08:25:42.834Z,101549.72
2018-09-29T08:28:11.236Z,101545.31
2018-09-29T08:30:39.736Z,101544.38
2018-09-29T08:33:08.201Z,101541.28
2018-09-29T08:35:36.660Z,101539.39
2018-09-29T08:38:05.455Z,101527.28
2018-09-29T08:40:33.989Z,101527.91
2018-09-29T08:43:02.455Z,101529.57
2018-09-29T08:45:30.943Z,101522.95
2018-09-29T08:47:59.755Z,101524.36
2018-09-29T08:50:28.218Z,101520.88
2018-09-29T08:52:57.166Z,101522.36
2018-09-29T08:55:26.081Z,101521.27
2018-09-29T08:57:54.489Z,101521.13
2018-09-29T09:00:22.967Z,101514.42
2018-09-29T09:02:51.939Z,101508.97
2018-09-29T09:05:20.316Z,101503.45
2018-09-29T09:07:48.761Z,101498.73
2018-09-29T09:10:17.173Z,101496.27
2018-09-29T09:12:45.636Z,101498.18
2018-09-29T09:15:14.605Z,101501.00
2018-09-29T09:17:43.200Z,101503.14
2018-09-29T09:20:11.556Z,101499.09
2018-09-29T09:22:39.959Z,101490.92
2018-09-29T09:25:09.471Z,101489.19
2018-09-29T09:27:37.855Z,101484.13
2018-09-29T09:30:06.533Z,101477.76
2018-09-29T09:32:35.231Z,101469.45
2018-09-29T09:35:03.879Z,101466.59
2018-09-29T09:37:32.289Z,101455.71
2018-09-29T09:40:01.077Z,101452.55
2018-09-29T09:42:29.498Z,101445.52
2018-09-29T09:44:57.844Z,101418.54
2018-09-29T09:47:26.251Z,101436.22
2018-09-29T09:49:54.784Z,101432.84
2018-09-29T09:52:23.168Z,101437.47
2018-09-29T09:54:51.960Z,101433.85
2018-09-29T09:57:20.469Z,101414.18
2018-09-29T09:59:49.035Z,101420.73
2018-09-29T10:02:22.657Z,101414.98
2018-09-29T10:04:51.025Z,101417.17
2018-09-29T10:07:19.587Z,101408.75
2018-09-29T10:09:48.258Z,101402.39
2018-09-29T10:12:16.639Z,101392.70
2018-09-29T10:14:45.019Z,101390.66
2018-09-29T10:17:13.804Z,101388.09
2018-09-29T10:19:42.522Z,101377.42
2018-09-29T10:22:10.859Z,101387.45
2018-09-29T10:24:39.251Z,101371.67
2018-09-29T10:27:07.769Z,101378.42
2018-09-29T10:29:38.163Z,101368.98
2018-09-29T10:32:07.188Z,101364.09
2018-09-29T10:34:35.619Z,101360.97
2018-09-29T10:37:04.049Z,101363.17
2018-09-29T10:39:32.880Z,101342.16
2018-09-29T10:42:03.420Z,101339.02
2018-09-29T10:44:32.828Z,101324.23
2018-09-29T10:47:03.699Z,101326.13
2018-09-29T10:49:32.140Z,101321.59
2018-09-29T10:52:00.968Z,101328.17
2018-09-29T10:54:30.196Z,101327.31
2018-09-29T10:56:58.592Z,101325.11
2018-09-29T10:59:27.019Z,101316.48
2018-09-29T11:01:55.483Z,101309.58
2018-09-29T11:04:24.143Z,101308.23
2018-09-29T11:06:52.955Z,101301.22
2018-09-29T11:09:22.089Z,101292.86
2018-09-29T11:11:50.431Z,101288.42
2018-09-29T11:14:19.228Z,101279.13
2018-09-29T11:16:47.775Z,101279.03
2018-09-29T11:19:16.176Z,101273.83
2018-09-29T11:21:44.976Z,101265.42
2018-09-29T11:24:13.462Z,101266.59
2018-09-29T11:26:44.409Z,101269.69
2018-09-29T11:29:14.062Z,101254.81
2018-09-29T11:31:42.486Z,101252.61
2018-09-29T11:34:11.378Z,101242.67
2018-09-29T11:36:41.056Z,101246.33
2018-09-29T11:39:11.338Z,101245.77
2018-09-29T11:41:40.051Z,101242.31
2018-09-29T11:44:11.718Z,101234.10
2018-09-29T11:46:42.024Z,101243.02
2018-09-29T11:49:11.987Z,101236.27
2018-09-29T11:51:42.344Z,101228.07
2018-09-29T11:54:11.226Z,101226.11
2018-09-29T11:56:40.079Z,101224.64
2018-09-29T11:59:09.203Z,101220.23
2018-09-29T12:01:37.665Z,101202.27
2018-09-29T12:04:07.530Z,101200.41
2018-09-29T12:06:35.927Z,101189.47
2018-09-29T12:09:06.381Z,101171.80
2018-09-29T12:11:35.297Z,101171.67
2018-09-29T12:14:03.792Z,101138.62
2018-09-29T12:16:32.165Z,101155.36
2018-09-29T12:19:00.928Z,101154.00
2018-09-29T12:21:29.530Z,101164.92
2018-09-29T12:23:57.980Z,101161.12
2018-09-29T12:26:26.670Z,101160.52
2018-09-29T12:28:55.097Z,101157.20
2018-09-29T12:31:23.805Z,101148.61
2018-09-29T12:33:52.676Z,101140.88
2018-09-29T12:36:21.079Z,101134.12
2018-09-29T12:38:49.433Z,101121.37
2018-09-29T12:41:18.274Z,101114.11
2018-09-29T12:43:47.436Z,101107.36
2018-09-29T12:46:15.831Z,101108.92
2018-09-29T12:48:44.253Z,101096.27
2018-09-29T12:51:12.687Z,101087.75
2018-09-29T12:53:41.181Z,101091.75
2018-09-29T12:56:10.293Z,101099.59
2018-09-29T12:58:38.767Z,101085.72
2018-09-29T13:01:08.494Z,101083.68
2018-09-29T13:03:37.359Z,101092.61
2018-09-29T13:06:05.720Z,101088.53
2018-09-29T13:08:34.634Z,101085.63
2018-09-29T13:11:03.613Z,101079.31
2018-09-29T13:13:32.025Z,101074.45
2018-09-29T13:16:00.551Z,101068.51
2018-09-29T13:18:29.379Z,101070.05
2018-09-29T13:20:57.917Z,101071.75
2018-09-29T13:23:26.313Z,101065.88
2018-09-29T13:25:54.872Z,101055.22
2018-09-29T13:28:23.361Z,101045.50
2018-09-29T13:30:51.731Z,101042.59
2018-09-29T13:33:20.460Z,101036.05
2018-09-29T13:35:48.803Z,101043.43
2018-09-29T13:38:17.176Z,101043.43
2018-09-29T13:40:45.611Z,101045.99
2018-09-29T13:43:14.060Z,101042.67
2018-09-29T13:45:42.591Z,101044.66
2018-09-29T13:48:11.753Z,101042.92
2018-09-29T13:50:40.116Z,101046.95
2018-09-29T13:53:08.519Z,101045.72
2018-09-29T13:55:37.361Z,101045.11
2018-09-29T13:58:05.735Z,101037.66
2018-09-29T14:00:34.124Z,101023.33
2018-09-29T14:03:02.946Z,101026.51
2018-09-29T14:05:31.879Z,101026.57
2018-09-29T14:08:00.238Z,101018.17
2018-09-29T14:10:29.026Z,100898.67
2018-09-29T14:12:58.226Z,101000.73
2018-09-29T14:15:26.704Z,100999.90
2018-09-29T14:17:55.471Z,101004.05
2018-09-29T14:20:23.841Z,100993.55
2018-09-29T14:22:52.204Z,100996.25
2018-09-29T14:25:20.935Z,100987.02
2018-09-29T14:27:49.369Z,100998.96
2018-09-29T14:30:17.860Z,100995.17
2018-09-29T14:32:46.759Z,101011.17
2018-09-29T14:35:15.142Z,100995.68
2018-09-29T14:37:43.559Z,100986.02
2018-09-29T14:40:11.950Z,100977.05
2018-09-29T14:42:40.401Z,100980.19
2018-09-29T14:45:09.079Z,100972.50
2018-09-29T14:47:37.380Z,100979.33
2018-09-29T14:50:06.216Z,100976.03
2018-09-29T14:52:34.799Z,100962.01
2018-09-29T14:55:03.804Z,100969.52
2018-09-29T14:57:32.575Z,100965.45
2018-09-29T15:00:01.508Z,100954.55
2018-09-29T15:02:30.368Z,100929.49
2018-09-29T15:04:59.135Z,100943.42
2018-09-29T15:07:27.627Z,100933.98
2018-09-29T15:09:56.325Z,100933.65
2018-09-29T15:12:24.695Z,100933.59
2018-09-29T15:14:53.898Z,100931.78
2018-09-29T15:17:22.795Z,100935.80
2018-09-29T15:19:51.402Z,100926.31
2018-09-29T15:22:19.753Z,100924.25
2018-09-29T15:24:48.746Z,100924.62
2018-09-29T15:27:17.112Z,100919.46
2018-09-29T15:29:45.531Z,100916.16
2018-09-29T15:32:14.704Z,100916.01
2018-09-29T15:34:43.077Z,100912.48
2018-09-29T15:37:11.450Z,100915.72
2018-09-29T15:39:40.347Z,100909.25
2018-09-29T15:42:08.719Z,100913.80
2018-09-29T15:44:37.133Z,100914.44
2018-09-29T15:47:05.987Z,100909.22
2018-09-29T15:49:34.365Z,100921.39
2018-09-29T15:52:03.495Z,100903.46
2018-09-29T15:54:32.467Z,100911.14
2018-09-29T15:57:01.341Z,100905.77
2018-09-29T15:59:29.679Z,100898.44
2018-09-29T16:01:59.152Z,100897.16
2018-09-29T16:04:27.640Z,100886.31
2018-09-29T16:06:56.120Z,100877.80
2018-09-29T16:09:24.674Z,100869.21
2018-09-29T16:11:53.667Z,100869.92
2018-09-29T16:14:23.067Z,100865.27
2018-09-29T16:16:51.464Z,100862.67
2018-09-29T16:19:20.003Z,100850.55
2018-09-29T16:21:48.462Z,100846.62
2018-09-29T16:24:17.108Z,100837.05
2018-09-29T16:26:45.580Z,100846.66
2018-09-29T16:29:14.952Z,100835.96
2018-09-29T16:31:43.360Z,100836.34
2018-09-29T16:34:11.820Z,100839.55
2018-09-29T16:36:40.234Z,100844.91
2018-09-29T16:39:11.480Z,100833.53
2018-09-29T16:41:40.012Z,100842.89
2018-09-29T16:44:08.355Z,100843.59
2018-09-29T16:46:37.212Z,100844.42
2018-09-29T16:49:05.544Z,100822.78
2018-09-29T16:51:34.099Z,100815.44
2018-09-29T16:54:02.552Z,100814.47
2018-09-29T16:56:30.971Z,100805.12
2018-09-29T16:58:59.487Z,100808.72
2018-09-29T17:01:28.305Z,100813.25
2018-09-29T17:03:56.727Z,100799.75
2018-09-29T17:06:25.023Z,100789.63
2018-09-29T17:08:53.849Z,100778.72
2018-09-29T17:11:22.328Z,100777.67
2018-09-29T17:13:51.477Z,100773.45
2018-09-29T17:16:20.211Z,100775.09
2018-09-29T17:18:49.419Z,100771.91
2018-09-29T17:21:17.833Z,100755.50
2018-09-29T17:23:46.588Z,100749.37
2018-09-29T17:26:14.927Z,100747.70
2018-09-29T17:28:43.419Z,100741.10
2018-09-29T17:31:12.759Z,100747.63
2018-09-29T17:33:41.192Z,100740.09
2018-09-29T17:36:09.667Z,100749.47
2018-09-29T17:38:38.471Z,100755.44
2018-09-29T17:41:06.952Z,100746.03
2018-09-29T17:43:35.351Z,100743.41
2018-09-29T17:46:04.773Z,100738.11
2018-09-29T17:48:33.139Z,100740.45
2018-09-29T17:51:01.491Z,100725.89
2018-09-29T17:53:30.037Z,100721.98
2018-09-29T17:55:58.393Z,100732.52
2018-09-29T17:58:26.771Z,100732.55
2018-09-29T18:00:55.527Z,100726.45
2018-09-29T18:03:24.038Z,100726.16
2018-09-29T18:05:52.487Z,100717.00
2018-09-29T18:08:21.421Z,100706.44
2018-09-29T18:10:49.785Z,100706.13
2018-09-29T18:13:18.304Z,100704.37
2018-09-29T18:15:47.041Z,100705.61
2018-09-29T18:18:15.582Z,100710.58
2018-09-29T18:20:44.228Z,100714.05
2018-09-29T18:23:12.768Z,100705.13
2018-09-29T18:25:41.163Z,100695.48
2018-09-29T18:28:09.630Z,100690.80
2018-09-29T18:30:38.140Z,100695.44
2018-09-29T18:33:06.487Z,100685.31
2018-09-29T18:35:34.880Z,100688.59
2018-09-29T18:38:03.314Z,100696.72
2018-09-29T18:40:31.743Z,100686.56
2018-09-29T18:43:00.205Z,100692.27
2018-09-29T18:45:28.666Z,100687.16
2018-09-29T18:47:57.584Z,100682.16
2018-09-29T18:50:26.221Z,100681.63
2018-09-29T18:52:56.831Z,100682.72
2018-09-29T18:55:26.510Z,100689.92
2018-09-29T18:57:54.983Z,100682.38
2018-09-29T19:00:23.391Z,100683.58
2018-09-29T19:02:52.777Z,100677.63
2018-09-29T19:05:21.219Z,100668.56
2018-09-29T19:07:50.609Z,100673.06
2018-09-29T19:10:19.012Z,100648.53
2018-09-29T19:12:47.431Z,100655.69
2018-09-29T19:15:17.571Z,100655.20
2018-09-29T19:17:46.672Z,100638.20
2018-09-29T19:20:16.377Z,100647.42
2018-09-29T19:22:45.131Z,100638.69
2018-09-29T19:25:13.509Z,100641.92
2018-09-29T19:27:42.915Z,100646.81
2018-09-29T19:30:11.408Z,100652.62
2018-09-29T19:32:39.848Z,100653.91
2018-09-29T19:35:08.648Z,100648.16
2018-09-29T19:37:37.361Z,100654.94
2018-09-29T19:40:06.835Z,100652.54
2018-09-29T19:42:35.365Z,100638.23
2018-09-29T19:45:03.747Z,100626.27
2018-09-29T19:47:32.780Z,100623.31
2018-09-29T19:50:02.111Z,100601.50
2018-09-29T19:52:31.022Z,100599.59
2018-09-29T19:54:59.473Z,100601.41
2018-09-29T19:57:27.919Z,100609.50
2018-09-29T19:59:56.634Z,100599.59
2018-09-29T20:02:25.270Z,100592.96
2018-09-29T20:04:53.637Z,100580.02
2018-09-29T20:07:22.561Z,100588.06
2018-09-29T20:09:50.967Z,100595.42
2018-09-29T20:12:19.336Z,100576.74
2018-09-29T20:14:48.648Z,100582.61
2018-09-29T20:17:17.104Z,100587.00
2018-09-29T20:19:45.650Z,100587.84
2018-09-29T20:22:14.079Z,100590.43
2018-09-29T20:24:43.063Z,100587.72
2018-09-29T20:27:11.451Z,100575.38
2018-09-29T20:29:41.476Z,100566.44
2018-09-29T20:32:10.559Z,100566.20
2018-09-29T20:34:39.062Z,100563.88
2018-09-29T20:37:08.047Z,100553.62
2018-09-29T20:39:36.795Z,100573.18
2018-09-29T20:42:05.364Z,100564.72
2018-09-29T20:44:34.440Z,100555.95
2018-09-29T20:47:02.828Z,100546.02
2018-09-29T20:49:31.370Z,100543.12
2018-09-29T20:52:00.255Z,100550.38
2018-09-29T20:54:28.772Z,100550.14
2018-09-29T20:56:57.227Z,100556.11
2018-09-29T20:59:26.220Z,100543.84
2018-09-29T21:01:54.689Z,100540.62
2018-09-29T21:04:23.039Z,100549.05
2018-09-29T21:06:51.863Z,100533.41
2018-09-29T21:09:20.303Z,100534.11
2018-09-29T21:11:48.807Z,100528.50
2018-09-29T21:14:17.366Z,100528.02
2018-09-29T21:16:45.748Z,100522.38
2018-09-29T21:19:14.131Z,100528.48
2018-09-29T21:21:42.943Z,100527.02
2018-09-29T21:24:11.281Z,100516.75
2018-09-29T21:26:39.704Z,100512.66
2018-09-29T21:29:08.591Z,100520.79
2018-09-29T21:31:37.059Z,100503.80
2018-09-29T21:34:05.476Z,100504.77
2018-09-29T21:36:34.947Z,100503.41
2018-09-29T21:39:03.676Z,100500.11
2018-09-29T21:41:32.109Z,100500.72
2018-09-29T21:44:00.923Z,100497.66
2018-09-29T21:46:29.904Z,100485.56
2018-09-29T21:48:59.014Z,100495.95
2018-09-29T21:51:27.887Z,100484.28
2018-09-29T21:53:56.305Z,100480.55
2018-09-29T21:56:24.880Z,100481.89
2018-09-29T21:58:53.739Z,100469.17
2018-09-29T22:01:27.590Z,100450.05
2018-09-29T22:03:56.112Z,100456.41
2018-09-29T22:06:24.780Z,100459.89
2018-09-29T22:08:53.171Z,100461.05
2018-09-29T22:11:22.084Z,100460.06
2018-09-29T22:13:50.436Z,100463.61
2018-09-29T22:16:18.837Z,100463.30
2018-09-29T22:18:47.652Z,100435.48
2018-09-29T22:21:16.097Z,100443.07
2018-09-29T22:23:44.486Z,100437.08
2018-09-29T22:26:13.786Z,100432.55
2018-09-29T22:28:42.170Z,100423.76
2018-09-29T22:31:10.985Z,100406.02
2018-09-29T22:33:39.744Z,100409.53
2018-09-29T22:36:08.099Z,100400.72
2018-09-29T22:38:36.466Z,100398.16
2018-09-29T22:41:05.186Z,100394.48
2018-09-29T22:43:33.547Z,100388.61
2018-09-29T22:46:02.072Z,100383.84
2018-09-29T22:48:30.831Z,100387.62
2018-09-29T22:51:00.116Z,100388.98
2018-09-29T22:53:28.478Z,100391.18
2018-09-29T22:55:57.324Z,100392.16
2018-09-29T22:58:25.939Z,100400.97
2018-09-29T23:00:54.310Z,100393.19
2018-09-29T23:03:23.058Z,100390.98
2018-09-29T23:05:51.554Z,100389.77
2018-09-29T23:08:19.916Z,100389.52
2018-09-29T23:10:48.775Z,100383.92
2018-09-29T23:13:17.148Z,100383.44
2018-09-29T23:15:45.534Z,100394.08
2018-09-29T23:18:14.340Z,100384.88
2018-09-29T23:20:42.711Z,100374.63
2018-09-29T23:23:11.067Z,100372.92
2018-09-29T23:25:40.326Z,100374.02
2018-09-29T23:28:08.698Z,100375.73
2018-09-29T23:30:37.238Z,100372.80
2018-09-29T23:33:06.129Z,100367.44
2018-09-29T23:35:34.485Z,100368.42
2018-09-29T23:38:02.887Z,100365.84
2018-09-29T23:40:31.695Z,100371.81
2018-09-29T23:43:00.099Z,100359.95
2018-09-29T23:45:28.568Z,100370.50
2018-09-29T23:47:57.583Z,100369.00
2018-09-29T23:50:25.935Z,100365.59
2018-09-29T23:52:54.335Z,100362.41
2018-09-29T23:55:23.093Z,100374.41
2018-09-29T23:57:52.253Z,100374.16
